Westby, MT (59275)

8:32 PM MDT on March 27, 2015 (GMT -0600)
Crosby | | Change Station
CLOSE
Current Station
Airport
Location: Crosby,
Elevation: 1949 ft
Nearby Weather Stations

Elev 1949 ft 48.93 °N, 103.30 °W | Updated 17 minutes ago

Partly Cloudy
Partly Cloudy
39 °F
Feels Like 34 °F
N
7
Wind Variable Wind from NE

Today
High -- | Low -- °F
--% Chance of Precip.
Yesterday
High -- | Low -- °F
Precip. -- in
6:45 AM 7:19 PM
First Quarter, 58% visible
Pressure 29.93 in
Visibility 10.0 miles
Clouds Clear
Windchill 34 °F
Dew Point 39 °F
Humidity 100%
Rainfall 0.00 in
Snow Depth Not available.
UV 0 out of 12
Pollen 2.20 out of 12
Air Quality Not available.
Flu Activity Not available.
METAR KD50 280215Z AUTO 05006KT 10SM CLR 04/04 A2993 RMK AO2

More Conditions Fewer Conditions

Pressure 29.93 in
Visibility 10.0 miles
Clouds Clear
Windchill 34 °F
Dew Point 39 °F
Humidity 100%
Rainfall 0.00 in
Snow Depth Not available.
UV 0 out of 12
Pollen 2.20 out of 12
Air Quality Not available.
Flu Activity Not available.
METAR KD50 280215Z AUTO 05006KT 10SM CLR 04/04 A2993 RMK AO2

More Conditions Fewer Conditions

10-Day Weather Forecast

Almanac

Astronomy

Mar. 27, 2015 Rise Set
Actual Time
Civil Twilight
Nautical Twilight
Astronomical Twilight
Moon
Length of Visible Light
Length of Day
Tomorrow will be .
, % of the Moon is Illuminated

Today's Extremes

State Highs State Lows

Community

WunderPhotos

Upload Photos

1,808,915 photos uploaded!

WunderBlogs® & News

Nearby

Air Quality

  Air Quality AQ Index Pollutant
Not available.

Snow Depth

Station Depth Elevation

Earthquake Activity

City Distance Mag. Time & Date
Minimum magnitude displayed is 2.5.

Coastal Water Temperatures

Place Temperature

Stations

Nearby Weather Stations

Station Location Temp. Windchill Dew Point Humidity Wind Precip. Elev Updated Type